Time;durP1;ratioP1;P1;durP2;ratioP2;P2;SDS_P1;SDS_P2;PMS_P1;PMS_P2;Temp;Humidity;BMP_temperature;BMP_pressure;BME280_temperature;BME280_humidity;BME280_pressure;Samples;Min_cycle;Max_cycle;Signal;HPM_P1;HPM_P2
2022/12/20 00:01:31;;;;;;;5.87;5.27;;;;;;;;;;5090159;28;20195;-84
2022/12/20 00:04:02;;;;;;;6.00;5.40;;;;;;;;;;5070533;28;20232;-84
2022/12/20 00:06:30;;;;;;;5.33;4.73;;;;;;;;;;5076762;28;20207;-84
2022/12/20 00:09:00;;;;;;;8.27;6.00;;;;;;;;;;5062686;28;20220;-84
2022/12/20 00:11:29;;;;;;;5.90;5.20;;;;;;;;;;5075809;28;20223;-84
2022/12/20 00:13:57;;;;;;;5.00;4.50;;;;;;;;;;5077088;28;20214;-84
2022/12/20 00:16:26;;;;;;;4.03;3.63;;;;;;;;;;5076988;28;20239;-84
2022/12/20 00:18:56;;;;;;;4.73;4.23;;;;;;;;;;5076551;28;20201;-84
2022/12/20 00:21:26;;;;;;;5.33;4.33;;;;;;;;;;5071453;28;20298;-84
2022/12/20 00:23:54;;;;;;;6.87;5.27;;;;;;;;;;5076635;28;20233;-84
2022/12/20 00:26:23;;;;;;;6.17;4.90;;;;;;;;;;5092768;28;20275;-84
2022/12/20 00:28:53;;;;;;;7.20;6.00;;;;;;;;;;5076740;28;20335;-84
2022/12/20 00:31:22;;;;;;;6.13;5.53;;;;;;;;;;5088758;28;20195;-84
2022/12/20 00:33:52;;;;;;;8.83;4.40;;;;;;;;;;5074838;28;20200;-84
2022/12/20 00:36:21;;;;;;;5.67;5.07;;;;;;;;;;5062785;28;20246;-84
2022/12/20 00:38:51;;;;;;;5.70;5.17;;;;;;;;;;5076220;28;20278;-84
2022/12/20 00:41:20;;;;;;;7.03;4.77;;;;;;;;;;5075562;28;20230;-84
2022/12/20 00:43:49;;;;;;;5.30;4.80;;;;;;;;;;5061491;28;20203;-84
2022/12/20 00:46:18;;;;;;;7.40;4.73;;;;;;;;;;5082388;28;20211;-84
2022/12/20 00:48:47;;;;;;;4.63;4.10;;;;;;;;;;5060703;28;20232;-84
2022/12/20 00:51:16;;;;;;;5.43;4.73;;;;;;;;;;5082785;28;20199;-84
2022/12/20 00:53:45;;;;;;;5.70;5.07;;;;;;;;;;5074967;28;20238;-84
2022/12/20 00:56:15;;;;;;;6.00;5.50;;;;;;;;;;5074741;28;20207;-84
2022/12/20 00:58:44;;;;;;;5.83;4.63;;;;;;;;;;5059096;28;20191;-84
2022/12/20 01:01:16;;;;;;;7.93;5.03;;;;;;;;;;5067779;28;20202;-84
2022/12/20 01:03:44;;;;;;;5.97;4.87;;;;;;;;;;5090286;28;20280;-84
2022/12/20 01:06:13;;;;;;;4.33;3.60;;;;;;;;;;5093975;28;20203;-84
2022/12/20 01:08:41;;;;;;;6.53;4.30;;;;;;;;;;5072594;28;20212;-84
2022/12/20 01:11:12;;;;;;;5.40;4.90;;;;;;;;;;5075599;28;20234;-84
2022/12/20 01:13:42;;;;;;;6.13;4.07;;;;;;;;;;5086775;28;20209;-84
2022/12/20 01:16:12;;;;;;;5.23;4.67;;;;;;;;;;5056230;28;20223;-84
2022/12/20 01:18:41;;;;;;;7.80;4.13;;;;;;;;;;5088021;28;20202;-84
2022/12/20 01:21:11;;;;;;;6.33;4.43;;;;;;;;;;5074582;28;20210;-84
2022/12/20 01:23:39;;;;;;;4.57;4.20;;;;;;;;;;5079990;28;20243;-84
2022/12/20 01:26:09;;;;;;;4.97;4.47;;;;;;;;;;5066241;28;20235;-84
2022/12/20 01:28:38;;;;;;;4.20;3.80;;;;;;;;;;5071244;28;20199;-84
2022/12/20 01:31:09;;;;;;;4.57;3.83;;;;;;;;;;5065060;28;20214;-84
2022/12/20 01:33:38;;;;;;;5.10;4.63;;;;;;;;;;5068823;28;20250;-84
2022/12/20 01:36:07;;;;;;;5.47;5.00;;;;;;;;;;5066922;28;20203;-84
2022/12/20 01:38:35;;;;;;;6.33;4.83;;;;;;;;;;5075080;28;20280;-84
2022/12/20 01:41:04;;;;;;;7.80;4.50;;;;;;;;;;5093428;28;20267;-84
2022/12/20 01:43:46;;;;;;;6.00;5.30;;;;;;;;;;5066305;28;20242;-84
2022/12/20 01:46:16;;;;;;;7.13;5.73;;;;;;;;;;5093402;28;20207;-84
2022/12/20 01:48:48;;;;;;;8.00;4.93;;;;;;;;;;5075087;28;20268;-84
2022/12/20 01:51:17;;;;;;;7.07;6.37;;;;;;;;;;5074192;28;20267;-84
2022/12/20 01:53:46;;;;;;;6.73;5.53;;;;;;;;;;5065263;28;20210;-84
2022/12/20 01:56:14;;;;;;;7.47;6.77;;;;;;;;;;5072540;28;20191;-84
2022/12/20 01:58:43;;;;;;;8.17;7.37;;;;;;;;;;5073346;28;20264;-84
2022/12/20 02:01:12;;;;;;;8.27;7.47;;;;;;;;;;5075009;28;20288;-84
2022/12/20 02:03:42;;;;;;;6.73;6.10;;;;;;;;;;5063066;28;20226;-84
2022/12/20 02:06:15;;;;;;;7.20;6.53;;;;;;;;;;5061269;28;20263;-84
2022/12/20 02:08:44;;;;;;;6.50;5.90;;;;;;;;;;5065128;28;20300;-84
2022/12/20 02:11:19;;;;;;;6.97;6.37;;;;;;;;;;5071356;28;20199;-84
2022/12/20 02:13:52;;;;;;;8.57;6.53;;;;;;;;;;5084102;28;20215;-84
2022/12/20 02:16:23;;;;;;;7.30;6.60;;;;;;;;;;5069535;28;20286;-84
2022/12/20 02:18:54;;;;;;;8.13;7.37;;;;;;;;;;5070902;28;20199;-84
2022/12/20 02:21:28;;;;;;;7.30;6.17;;;;;;;;;;5092938;28;20210;-84
2022/12/20 02:24:21;;;;;;;9.87;8.10;;;;;;;;;;5092402;28;20255;-84
2022/12/20 02:27:06;;;;;;;8.70;7.60;;;;;;;;;;5074939;28;20290;-84
2022/12/20 02:29:37;;;;;;;10.03;8.10;;;;;;;;;;5075112;28;20237;-84
2022/12/20 02:32:09;;;;;;;7.97;7.17;;;;;;;;;;5072625;28;20249;-84
2022/12/20 02:34:38;;;;;;;7.47;6.77;;;;;;;;;;5071499;28;20213;-84
2022/12/20 02:37:06;;;;;;;7.33;6.63;;;;;;;;;;5096443;28;20272;-84
2022/12/20 02:39:36;;;;;;;4.67;4.27;;;;;;;;;;5077757;28;20192;-84
2022/12/20 02:42:06;;;;;;;8.53;7.67;;;;;;;;;;5063446;28;20221;-84
2022/12/20 02:47:26;;;;;;;16.60;8.10;;;;;;;;;;5075420;28;20206;-84
2022/12/20 02:49:55;;;;;;;7.00;6.40;;;;;;;;;;5058996;28;20218;-84
2022/12/20 02:52:26;;;;;;;10.00;7.40;;;;;;;;;;5082798;28;20251;-84
2022/12/20 02:54:55;;;;;;;9.30;7.13;;;;;;;;;;5078540;28;20256;-84
2022/12/20 02:57:26;;;;;;;9.07;8.13;;;;;;;;;;5077008;28;20198;-84
2022/12/20 02:59:58;;;;;;;7.83;6.97;;;;;;;;;;5095873;28;20259;-84
2022/12/20 03:03:21;;;;;;;8.90;7.97;;;;;;;;;;5996769;22;20206;-82
2022/12/20 03:05:23;;;;;;;9.83;5.50;;;;;;;;;;5032593;28;20251;-84
2022/12/20 03:07:52;;;;;;;9.17;7.63;;;;;;;;;;5018479;28;20209;-84
2022/12/20 03:10:20;;;;;;;9.73;7.57;;;;;;;;;;5018077;28;20216;-84
2022/12/20 03:12:49;;;;;;;7.97;7.17;;;;;;;;;;5009573;28;20204;-84
2022/12/20 03:15:17;;;;;;;9.87;7.17;;;;;;;;;;5018411;28;20250;-84
2022/12/20 03:17:47;;;;;;;8.77;7.97;;;;;;;;;;5018393;28;20198;-84
2022/12/20 03:20:15;;;;;;;8.67;7.30;;;;;;;;;;5035861;28;20209;-84
2022/12/20 03:22:43;;;;;;;9.90;7.37;;;;;;;;;;5017345;28;20206;-84
2022/12/20 03:25:12;;;;;;;9.30;7.90;;;;;;;;;;5035719;28;20215;-84
2022/12/20 03:27:40;;;;;;;6.50;5.03;;;;;;;;;;5033417;28;20203;-84
2022/12/20 03:30:09;;;;;;;6.93;6.23;;;;;;;;;;5018123;28;20247;-84
2022/12/20 03:32:37;;;;;;;7.63;5.30;;;;;;;;;;5017308;28;20244;-84
2022/12/20 03:35:10;;;;;;;7.03;6.33;;;;;;;;;;5035517;28;20218;-84
2022/12/20 03:37:38;;;;;;;8.03;7.40;;;;;;;;;;5017962;28;20199;-84
2022/12/20 03:40:07;;;;;;;7.53;6.87;;;;;;;;;;5017608;28;20288;-84
2022/12/20 03:42:36;;;;;;;7.83;7.13;;;;;;;;;;5033938;28;20201;-84
2022/12/20 03:45:05;;;;;;;7.70;7.00;;;;;;;;;;5035066;28;20292;-84
2022/12/20 03:47:33;;;;;;;6.40;5.87;;;;;;;;;;5022950;28;20193;-84
2022/12/20 03:50:02;;;;;;;7.90;6.37;;;;;;;;;;5034888;28;20267;-84
2022/12/20 03:52:31;;;;;;;7.70;5.50;;;;;;;;;;5017328;28;20210;-84
2022/12/20 03:55:00;;;;;;;6.67;6.17;;;;;;;;;;5034781;28;20201;-84
2022/12/20 03:57:28;;;;;;;5.60;5.00;;;;;;;;;;5016811;28;20201;-84
2022/12/20 03:59:56;;;;;;;6.80;5.47;;;;;;;;;;5034578;28;20229;-84
2022/12/20 04:02:25;;;;;;;6.47;5.87;;;;;;;;;;5017502;28;20200;-84
2022/12/20 04:04:53;;;;;;;7.13;6.37;;;;;;;;;;5033540;28;20255;-84
2022/12/20 04:07:22;;;;;;;4.40;3.97;;;;;;;;;;5017623;28;20246;-84
2022/12/20 04:09:51;;;;;;;5.67;5.17;;;;;;;;;;5016104;28;20216;-84
2022/12/20 04:12:20;;;;;;;6.03;4.87;;;;;;;;;;5016978;28;20211;-84
2022/12/20 04:14:48;;;;;;;7.30;6.60;;;;;;;;;;5003334;28;20211;-84
2022/12/20 04:17:16;;;;;;;6.40;5.00;;;;;;;;;;5016758;28;20200;-84
2022/12/20 04:19:45;;;;;;;6.10;5.60;;;;;;;;;;5033457;28;20283;-84
2022/12/20 04:22:13;;;;;;;6.30;5.67;;;;;;;;;;5023465;28;20205;-84
2022/12/20 04:24:41;;;;;;;6.90;5.20;;;;;;;;;;5032818;28;20263;-84
2022/12/20 04:27:11;;;;;;;8.83;5.57;;;;;;;;;;5017092;28;20293;-84
2022/12/20 04:29:39;;;;;;;5.50;4.93;;;;;;;;;;5015710;28;20232;-84
2022/12/20 04:32:08;;;;;;;5.47;4.67;;;;;;;;;;5016669;28;20231;-84
2022/12/20 04:34:36;;;;;;;5.57;5.07;;;;;;;;;;5003909;28;20234;-84
2022/12/20 04:37:05;;;;;;;9.80;6.17;;;;;;;;;;5008274;28;20205;-84
2022/12/20 04:39:33;;;;;;;7.00;4.37;;;;;;;;;;5034122;28;20194;-84
2022/12/20 04:42:01;;;;;;;6.27;5.37;;;;;;;;;;5033776;28;20208;-84
2022/12/20 04:44:31;;;;;;;6.33;4.93;;;;;;;;;;5033268;28;20199;-84
2022/12/20 04:46:59;;;;;;;5.30;4.80;;;;;;;;;;5016824;28;20206;-84
2022/12/20 04:49:28;;;;;;;6.30;5.30;;;;;;;;;;5016140;28;20205;-84
2022/12/20 04:53:46;;;;;;;5.07;4.67;;;;;;;;;;5013553;28;20216;-84
2022/12/20 04:54:45;;;;;;;5.93;5.43;;;;;;;;;;4998972;28;20200;-84
2022/12/20 04:57:13;;;;;;;6.17;5.03;;;;;;;;;;5032832;28;20221;-84
2022/12/20 04:59:43;;;;;;;6.63;4.43;;;;;;;;;;5015321;28;20267;-84
2022/12/20 05:02:11;;;;;;;5.00;4.60;;;;;;;;;;5026391;28;20309;-84
2022/12/20 05:04:40;;;;;;;8.03;5.13;;;;;;;;;;5030469;28;20261;-84
2022/12/20 05:07:08;;;;;;;4.43;4.03;;;;;;;;;;5004874;28;20220;-84
2022/12/20 05:09:36;;;;;;;6.20;5.50;;;;;;;;;;5015943;28;20198;-84
2022/12/20 05:12:05;;;;;;;6.83;5.80;;;;;;;;;;5015890;28;20259;-84
2022/12/20 05:14:33;;;;;;;7.60;6.80;;;;;;;;;;5014895;28;20204;-84
2022/12/20 05:17:03;;;;;;;6.87;6.03;;;;;;;;;;5015890;28;20196;-84
2022/12/20 05:19:32;;;;;;;5.80;4.83;;;;;;;;;;5015212;28;20219;-84
2022/12/20 05:27:32;;;;;;;8.50;7.63;;;;;;;;;;5033194;28;20214;-84
2022/12/20 05:30:00;;;;;;;8.73;7.87;;;;;;;;;;5015323;28;20219;-84
2022/12/20 05:32:30;;;;;;;8.33;7.37;;;;;;;;;;5015577;28;20209;-84
2022/12/20 05:34:58;;;;;;;5.87;5.23;;;;;;;;;;5013423;28;20260;-84
2022/12/20 05:37:26;;;;;;;11.73;10.77;;;;;;;;;;5028087;28;20201;-84
2022/12/20 05:39:55;;;;;;;11.03;9.83;;;;;;;;;;5015987;28;20204;-84
2022/12/20 05:42:23;;;;;;;10.13;9.20;;;;;;;;;;5015866;28;20205;-84
2022/12/20 05:44:51;;;;;;;9.47;8.57;;;;;;;;;;5022004;28;20201;-84
2022/12/20 05:47:20;;;;;;;12.33;9.13;;;;;;;;;;5030310;28;20201;-84
2022/12/20 05:49:49;;;;;;;8.90;8.00;;;;;;;;;;5015547;28;20201;-84
2022/12/20 05:52:18;;;;;;;10.10;9.10;;;;;;;;;;5010363;28;20214;-84
2022/12/20 05:54:46;;;;;;;9.73;7.23;;;;;;;;;;5030373;28;20205;-84
2022/12/20 05:57:14;;;;;;;8.57;7.77;;;;;;;;;;5015626;28;20549;-84
2022/12/20 05:59:43;;;;;;;9.23;8.33;;;;;;;;;;5003969;28;20211;-84
2022/12/20 06:02:12;;;;;;;9.67;7.43;;;;;;;;;;5002946;28;20260;-84
2022/12/20 06:04:40;;;;;;;8.43;6.97;;;;;;;;;;5032074;28;20253;-83
2022/12/20 06:07:10;;;;;;;11.80;7.57;;;;;;;;;;5018105;28;20200;-84
2022/12/20 06:09:38;;;;;;;7.70;6.90;;;;;;;;;;5017582;28;20227;-84
2022/12/20 06:12:07;;;;;;;7.03;6.33;;;;;;;;;;5017419;28;20214;-84
2022/12/20 06:14:35;;;;;;;7.90;6.10;;;;;;;;;;5022804;28;20229;-84
2022/12/20 06:17:03;;;;;;;7.03;6.37;;;;;;;;;;5010547;28;20210;-84
2022/12/20 06:19:32;;;;;;;7.50;6.07;;;;;;;;;;5032451;28;20258;-84
2022/12/20 06:22:00;;;;;;;11.67;4.37;;;;;;;;;;5019052;28;20251;-84
2022/12/20 06:24:30;;;;;;;6.50;5.83;;;;;;;;;;5035163;28;20213;-84
2022/12/20 06:26:58;;;;;;;7.67;5.37;;;;;;;;;;5036300;28;20296;-84
2022/12/20 06:29:27;;;;;;;5.90;5.30;;;;;;;;;;5008870;28;20197;-84
2022/12/20 06:31:55;;;;;;;6.03;5.47;;;;;;;;;;5035975;28;20226;-84
2022/12/20 06:34:24;;;;;;;4.43;3.93;;;;;;;;;;5007157;28;20205;-83
2022/12/20 06:36:52;;;;;;;5.13;4.60;;;;;;;;;;5008241;28;20281;-84
2022/12/20 06:39:20;;;;;;;5.30;4.70;;;;;;;;;;5034324;28;20209;-84
2022/12/20 06:41:50;;;;;;;5.80;4.57;;;;;;;;;;5033183;28;20263;-84
2022/12/20 06:44:18;;;;;;;4.27;3.87;;;;;;;;;;5015101;28;20202;-84
2022/12/20 06:46:47;;;;;;;5.87;5.33;;;;;;;;;;5030770;28;20201;-84
2022/12/20 06:49:15;;;;;;;5.40;4.90;;;;;;;;;;5030652;28;20202;-83
2022/12/20 06:51:44;;;;;;;4.37;3.97;;;;;;;;;;5018616;28;20426;-84
2022/12/20 06:54:12;;;;;;;5.43;4.67;;;;;;;;;;5008475;28;20202;-83
2022/12/20 06:56:40;;;;;;;6.57;5.93;;;;;;;;;;5016248;28;20228;-84
2022/12/20 06:59:10;;;;;;;7.87;5.60;;;;;;;;;;5016447;28;20210;-83
2022/12/20 07:01:39;;;;;;;6.60;5.80;;;;;;;;;;5016626;28;20200;-84
2022/12/20 07:04:07;;;;;;;5.83;5.07;;;;;;;;;;5017217;28;20251;-84
2022/12/20 07:06:35;;;;;;;7.50;5.70;;;;;;;;;;5034190;28;20216;-84
2022/12/20 07:09:04;;;;;;;6.23;5.60;;;;;;;;;;5018878;28;20213;-83
2022/12/20 07:11:32;;;;;;;9.33;6.57;;;;;;;;;;5013705;28;20213;-83
2022/12/20 07:14:01;;;;;;;6.23;5.67;;;;;;;;;;5010373;28;20229;-83
2022/12/20 07:16:31;;;;;;;5.63;4.57;;;;;;;;;;5034518;28;20217;-84
2022/12/20 07:18:59;;;;;;;7.47;5.63;;;;;;;;;;5018480;28;20207;-84
2022/12/20 07:21:28;;;;;;;7.03;5.30;;;;;;;;;;5012193;28;20199;-84
2022/12/20 07:23:56;;;;;;;6.03;5.53;;;;;;;;;;5028038;28;20205;-84
2022/12/20 07:26:25;;;;;;;6.53;5.23;;;;;;;;;;5017288;28;20236;-84
2022/12/20 07:28:53;;;;;;;6.63;5.43;;;;;;;;;;5018292;28;20199;-84
2022/12/20 07:31:21;;;;;;;6.43;5.73;;;;;;;;;;5031214;28;20222;-83
2022/12/20 07:33:51;;;;;;;5.77;4.73;;;;;;;;;;5017549;28;20276;-84
2022/12/20 07:36:20;;;;;;;7.27;5.80;;;;;;;;;;5018012;28;20209;-84
2022/12/20 07:38:48;;;;;;;7.00;5.07;;;;;;;;;;5017716;28;20201;-84
2022/12/20 07:41:17;;;;;;;6.07;5.47;;;;;;;;;;5028530;28;20207;-83
2022/12/20 07:43:46;;;;;;;7.00;5.77;;;;;;;;;;5017393;28;20284;-83
2022/12/20 07:46:15;;;;;;;5.70;5.10;;;;;;;;;;5016783;28;20266;-84
2022/12/20 07:48:44;;;;;;;6.17;4.03;;;;;;;;;;5016759;28;20291;-84
2022/12/20 07:51:15;;;;;;;7.90;6.23;;;;;;;;;;5017689;28;20220;-84
2022/12/20 07:53:44;;;;;;;9.37;5.87;;;;;;;;;;5012640;28;20251;-83
2022/12/20 07:56:13;;;;;;;8.83;5.30;;;;;;;;;;5008221;28;20202;-83
2022/12/20 07:58:42;;;;;;;5.80;5.30;;;;;;;;;;5034411;28;20206;-83
2022/12/20 08:01:12;;;;;;;5.93;4.97;;;;;;;;;;5014244;28;20209;-84
2022/12/20 08:03:44;;;;;;;6.90;5.77;;;;;;;;;;5014711;28;20243;-83
2022/12/20 08:06:15;;;;;;;6.73;5.33;;;;;;;;;;5006757;28;20242;-84
2022/12/20 08:08:46;;;;;;;4.67;4.23;;;;;;;;;;5012378;28;20232;-83
2022/12/20 08:11:14;;;;;;;5.30;4.80;;;;;;;;;;5013755;28;20212;-84
2022/12/20 08:13:43;;;;;;;6.53;5.00;;;;;;;;;;5008507;28;20250;-83
2022/12/20 08:16:14;;;;;;;5.53;4.43;;;;;;;;;;5017075;28;20216;-84
2022/12/20 08:18:43;;;;;;;4.93;4.40;;;;;;;;;;5008000;28;20210;-84
2022/12/20 08:21:13;;;;;;;5.80;5.27;;;;;;;;;;5030766;28;20236;-84
2022/12/20 08:23:43;;;;;;;5.17;4.60;;;;;;;;;;5016779;28;20239;-84
2022/12/20 08:26:11;;;;;;;4.97;3.70;;;;;;;;;;5013196;28;20250;-84
2022/12/20 08:28:39;;;;;;;5.10;4.67;;;;;;;;;;5023325;28;20200;-83
2022/12/20 08:31:09;;;;;;;6.07;5.47;;;;;;;;;;4999515;28;20233;-84
2022/12/20 08:33:39;;;;;;;4.00;3.00;;;;;;;;;;5026324;28;20244;-84
2022/12/20 08:36:08;;;;;;;8.93;4.07;;;;;;;;;;5016685;28;20209;-84
2022/12/20 08:38:37;;;;;;;6.43;4.27;;;;;;;;;;5028508;28;20239;-84
2022/12/20 08:41:09;;;;;;;6.43;4.43;;;;;;;;;;5016755;28;20214;-84
2022/12/20 08:43:38;;;;;;;3.63;3.33;;;;;;;;;;5028407;28;20204;-84
2022/12/20 08:46:07;;;;;;;6.20;4.40;;;;;;;;;;5016446;28;20292;-84
2022/12/20 08:48:36;;;;;;;6.03;4.37;;;;;;;;;;5015183;28;20211;-84
2022/12/20 08:51:05;;;;;;;5.27;4.73;;;;;;;;;;5006311;28;20204;-84
2022/12/20 08:53:34;;;;;;;6.13;4.40;;;;;;;;;;5015761;28;20211;-84
2022/12/20 08:56:08;;;;;;;5.17;4.67;;;;;;;;;;5016542;28;20204;-84
2022/12/20 08:58:37;;;;;;;6.87;4.67;;;;;;;;;;5031917;28;20225;-84
2022/12/20 09:01:06;;;;;;;5.00;4.60;;;;;;;;;;5016566;28;20200;-84
2022/12/20 09:03:36;;;;;;;9.37;5.20;;;;;;;;;;5004174;28;20214;-84
2022/12/20 09:06:06;;;;;;;5.37;4.23;;;;;;;;;;5022296;28;20237;-84
2022/12/20 09:08:34;;;;;;;8.53;5.07;;;;;;;;;;5015906;28;20197;-84
2022/12/20 09:11:09;;;;;;;6.17;5.00;;;;;;;;;;5033437;28;20204;-84
2022/12/20 09:13:37;;;;;;;4.70;4.23;;;;;;;;;;5003454;28;20266;-84
2022/12/20 09:16:11;;;;;;;4.63;4.13;;;;;;;;;;5032025;28;20211;-84
2022/12/20 09:18:40;;;;;;;5.83;4.60;;;;;;;;;;5022768;28;20292;-84
2022/12/20 09:21:08;;;;;;;6.43;5.40;;;;;;;;;;5012743;28;20228;-85
2022/12/20 09:23:38;;;;;;;9.87;4.70;;;;;;;;;;5019326;28;20194;-84
2022/12/20 09:26:08;;;;;;;6.63;6.00;;;;;;;;;;5015968;28;20211;-84
2022/12/20 09:28:37;;;;;;;6.93;5.13;;;;;;;;;;5015377;28;20206;-84
2022/12/20 09:31:06;;;;;;;4.23;3.83;;;;;;;;;;5032681;28;20211;-84
2022/12/20 09:33:35;;;;;;;5.80;4.23;;;;;;;;;;5014955;28;20219;-84
2022/12/20 09:36:04;;;;;;;6.30;4.27;;;;;;;;;;5015899;28;20198;-85
2022/12/20 09:38:34;;;;;;;6.37;5.30;;;;;;;;;;5015680;28;20209;-85
2022/12/20 09:41:03;;;;;;;7.63;4.80;;;;;;;;;;5002617;28;20209;-84
2022/12/20 09:43:34;;;;;;;4.27;3.07;;;;;;;;;;5014994;28;20205;-84
2022/12/20 09:46:03;;;;;;;5.17;4.10;;;;;;;;;;5017289;28;20205;-85
2022/12/20 09:48:33;;;;;;;5.10;4.07;;;;;;;;;;5009005;28;20296;-84
2022/12/20 09:51:08;;;;;;;7.20;5.17;;;;;;;;;;5027681;28;20293;-85
2022/12/20 09:53:39;;;;;;;11.07;3.20;;;;;;;;;;4996363;28;20281;-85
2022/12/20 09:56:11;;;;;;;5.97;4.90;;;;;;;;;;5023449;28;20203;-84
2022/12/20 09:58:54;;;;;;;5.43;4.60;;;;;;;;;;5015503;28;20259;-84
2022/12/20 10:01:23;;;;;;;7.43;5.80;;;;;;;;;;5014146;28;20252;-84
2022/12/20 10:03:54;;;;;;;5.90;5.00;;;;;;;;;;5015511;28;20229;-85
2022/12/20 10:06:26;;;;;;;6.83;4.43;;;;;;;;;;5019998;28;20204;-84
2022/12/20 10:08:57;;;;;;;4.47;2.37;;;;;;;;;;5015256;28;20204;-85
2022/12/20 10:11:41;;;;;;;6.23;5.13;;;;;;;;;;5018748;28;20202;-84
2022/12/20 10:14:25;;;;;;;5.43;4.57;;;;;;;;;;5014810;28;20207;-84
2022/12/20 10:16:56;;;;;;;4.53;3.93;;;;;;;;;;5003517;28;20216;-84
2022/12/20 10:19:44;;;;;;;6.50;5.83;;;;;;;;;;5015233;28;20209;-84
2022/12/20 10:22:16;;;;;;;8.70;4.67;;;;;;;;;;5009270;28;20229;-84
2022/12/20 10:24:46;;;;;;;5.83;5.10;;;;;;;;;;5014689;28;20203;-85
2022/12/20 10:27:15;;;;;;;6.40;5.40;;;;;;;;;;5032549;28;20236;-85
2022/12/20 10:29:45;;;;;;;5.50;5.00;;;;;;;;;;5030398;28;20197;-84
2022/12/20 10:32:15;;;;;;;2.90;1.93;;;;;;;;;;5009717;28;20209;-84
2022/12/20 10:34:46;;;;;;;7.33;5.27;;;;;;;;;;5008088;28;20268;-84
2022/12/20 10:37:16;;;;;;;5.60;4.97;;;;;;;;;;5028658;28;20205;-84
2022/12/20 10:39:45;;;;;;;7.37;5.20;;;;;;;;;;5028907;28;20210;-85
2022/12/20 10:42:25;;;;;;;6.33;4.63;;;;;;;;;;5029981;28;20199;-84
2022/12/20 10:44:56;;;;;;;6.60;3.33;;;;;;;;;;5006582;28;20280;-84
2022/12/20 10:47:30;;;;;;;6.97;5.67;;;;;;;;;;4996838;28;20225;-86
2022/12/20 10:50:09;;;;;;;6.03;5.43;;;;;;;;;;5027480;28;20224;-85
2022/12/20 10:52:37;;;;;;;6.73;5.33;;;;;;;;;;5007345;28;20208;-85
2022/12/20 10:55:28;;;;;;;7.80;5.57;;;;;;;;;;5015284;28;20197;-85
2022/12/20 10:57:57;;;;;;;8.17;5.87;;;;;;;;;;5017906;28;20250;-84
2022/12/20 11:00:30;;;;;;;7.60;5.73;;;;;;;;;;5016843;28;20192;-83
2022/12/20 11:03:12;;;;;;;7.80;5.43;;;;;;;;;;5035729;28;20229;-83
2022/12/20 11:05:42;;;;;;;8.57;5.70;;;;;;;;;;5021392;28;20228;-83
2022/12/20 11:08:15;;;;;;;6.17;4.87;;;;;;;;;;5017559;28;20216;-85
2022/12/20 11:11:16;;;;;;;11.53;4.17;;;;;;;;;;5028051;28;20207;-85
2022/12/20 11:13:45;;;;;;;5.57;5.03;;;;;;;;;;5010748;28;20338;-85
2022/12/20 11:16:26;;;;;;;3.63;3.33;;;;;;;;;;5010843;28;20272;-85
2022/12/20 11:19:11;;;;;;;6.00;5.47;;;;;;;;;;5025917;28;20225;-85
2022/12/20 11:21:43;;;;;;;7.90;5.60;;;;;;;;;;5024794;28;20247;-85
2022/12/20 11:24:13;;;;;;;3.73;2.93;;;;;;;;;;5024504;28;20230;-85
2022/12/20 11:26:51;;;;;;;9.90;4.93;;;;;;;;;;5012919;28;20259;-85
2022/12/20 11:29:28;;;;;;;5.27;4.53;;;;;;;;;;5010024;28;20205;-84
2022/12/20 11:32:03;;;;;;;5.50;5.00;;;;;;;;;;5024144;28;20227;-85
2022/12/20 11:34:38;;;;;;;5.50;3.83;;;;;;;;;;5013068;28;20237;-85
2022/12/20 11:37:12;;;;;;;10.13;4.20;;;;;;;;;;5014144;28;20256;-85
2022/12/20 11:39:44;;;;;;;4.57;3.50;;;;;;;;;;5010492;28;20223;-85
2022/12/20 11:42:17;;;;;;;6.00;4.17;;;;;;;;;;5005251;28;20215;-83
2022/12/20 11:44:54;;;;;;;8.93;4.53;;;;;;;;;;5009876;28;20226;-84
2022/12/20 11:47:45;;;;;;;6.63;5.23;;;;;;;;;;5026596;28;20249;-83
2022/12/20 11:50:28;;;;;;;5.63;4.20;;;;;;;;;;5016949;28;20209;-83
2022/12/20 11:52:59;;;;;;;4.50;4.10;;;;;;;;;;5023087;28;20222;-82
2022/12/20 11:55:29;;;;;;;4.67;3.00;;;;;;;;;;5006326;28;20214;-84
2022/12/20 11:58:01;;;;;;;4.70;3.67;;;;;;;;;;5008856;28;20203;-83
2022/12/20 12:00:51;;;;;;;4.93;3.37;;;;;;;;;;5008323;28;20217;-84
2022/12/20 12:03:24;;;;;;;3.40;3.10;;;;;;;;;;5022386;28;20254;-83
2022/12/20 12:05:54;;;;;;;7.90;4.03;;;;;;;;;;5010342;28;20430;-83
2022/12/20 12:08:25;;;;;;;3.77;3.47;;;;;;;;;;5009355;28;20309;-85
2022/12/20 12:10:57;;;;;;;8.67;4.20;;;;;;;;;;5020800;28;20250;-85
2022/12/20 12:13:27;;;;;;;6.87;2.97;;;;;;;;;;5028452;28;20210;-86
2022/12/20 12:15:59;;;;;;;6.77;3.20;;;;;;;;;;5022680;28;20229;-83
2022/12/20 12:18:30;;;;;;;5.17;3.20;;;;;;;;;;5003998;28;20214;-83
2022/12/20 12:21:03;;;;;;;8.73;5.30;;;;;;;;;;5006043;28;20219;-82
2022/12/20 12:23:41;;;;;;;7.40;4.23;;;;;;;;;;5026182;28;20191;-83
2022/12/20 12:26:12;;;;;;;4.10;3.70;;;;;;;;;;5008360;28;20199;-83
2022/12/20 12:28:41;;;;;;;6.10;4.77;;;;;;;;;;5019549;28;20210;-83
2022/12/20 12:31:12;;;;;;;4.90;4.33;;;;;;;;;;5022005;28;20203;-83
2022/12/20 12:33:44;;;;;;;2.53;1.53;;;;;;;;;;5028384;28;20283;-83
2022/12/20 12:36:29;;;;;;;5.43;3.90;;;;;;;;;;5005091;28;20222;-83
2022/12/20 12:39:22;;;;;;;5.43;4.00;;;;;;;;;;5014335;28;20202;-84
2022/12/20 12:41:58;;;;;;;2.87;2.63;;;;;;;;;;5004111;28;20233;-84
2022/12/20 12:44:34;;;;;;;2.47;2.10;;;;;;;;;;5013398;28;20199;-87
2022/12/20 12:47:06;;;;;;;4.87;2.73;;;;;;;;;;5007871;28;20202;-86
2022/12/20 12:49:36;;;;;;;3.17;2.83;;;;;;;;;;5007798;28;20205;-86
2022/12/20 12:52:06;;;;;;;5.63;3.10;;;;;;;;;;5006379;28;20207;-85
2022/12/20 12:54:36;;;;;;;6.37;4.73;;;;;;;;;;5005196;28;20215;-86
2022/12/20 12:57:11;;;;;;;3.90;3.43;;;;;;;;;;5021920;28;20210;-85
2022/12/20 12:59:46;;;;;;;8.43;5.37;;;;;;;;;;5003046;28;20195;-85
2022/12/20 13:02:39;;;;;;;8.73;6.97;;;;;;;;;;5029774;28;20206;-84
2022/12/20 13:05:31;;;;;;;6.80;3.47;;;;;;;;;;5002982;28;20259;-86
2022/12/20 13:08:03;;;;;;;6.37;3.03;;;;;;;;;;5022670;28;20278;-85
2022/12/20 13:10:51;;;;;;;5.93;5.23;;;;;;;;;;5011177;28;20215;-85
2022/12/20 13:13:23;;;;;;;8.70;5.87;;;;;;;;;;5006663;28;20214;-85
2022/12/20 13:15:52;;;;;;;4.27;3.87;;;;;;;;;;5028700;28;20271;-85
2022/12/20 13:18:25;;;;;;;7.50;6.17;;;;;;;;;;5010860;28;20245;-85
2022/12/20 13:21:12;;;;;;;7.00;5.23;;;;;;;;;;5024858;28;20256;-85
2022/12/20 13:23:42;;;;;;;9.43;4.40;;;;;;;;;;5011101;28;20202;-84
2022/12/20 13:26:25;;;;;;;9.23;7.10;;;;;;;;;;5007813;28;20195;-84
2022/12/20 13:28:55;;;;;;;8.27;5.77;;;;;;;;;;5024528;28;20264;-85
2022/12/20 13:31:31;;;;;;;6.63;5.13;;;;;;;;;;5006325;28;20196;-84
2022/12/20 13:34:02;;;;;;;6.47;5.67;;;;;;;;;;5006055;28;20198;-85
2022/12/20 13:36:33;;;;;;;3.90;3.53;;;;;;;;;;5023427;28;20202;-85
2022/12/20 13:39:04;;;;;;;8.43;5.17;;;;;;;;;;5004611;28;20218;-85
2022/12/20 13:41:40;;;;;;;8.77;4.37;;;;;;;;;;5008629;28;20200;-85
2022/12/20 13:44:18;;;;;;;10.07;4.90;;;;;;;;;;5003191;28;20203;-85
2022/12/20 13:46:49;;;;;;;6.43;5.13;;;;;;;;;;5005121;28;20205;-85
2022/12/20 13:49:22;;;;;;;4.37;3.60;;;;;;;;;;5009177;28;20206;-86
2022/12/20 13:52:07;;;;;;;8.27;5.33;;;;;;;;;;5010057;28;20215;-85
2022/12/20 13:54:40;;;;;;;11.10;6.10;;;;;;;;;;5003420;28;20284;-86
2022/12/20 13:57:10;;;;;;;11.23;5.83;;;;;;;;;;5006355;28;20204;-85
2022/12/20 13:59:41;;;;;;;5.40;4.77;;;;;;;;;;5026153;28;20209;-85
2022/12/20 14:02:18;;;;;;;9.13;6.17;;;;;;;;;;5006107;28;20203;-85
2022/12/20 14:04:50;;;;;;;8.83;4.83;;;;;;;;;;5005512;28;20238;-85
2022/12/20 14:07:19;;;;;;;8.73;4.03;;;;;;;;;;5008914;28;20210;-86
2022/12/20 14:09:55;;;;;;;5.80;4.60;;;;;;;;;;5024194;28;20198;-85
2022/12/20 14:12:24;;;;;;;9.40;5.33;;;;;;;;;;5010709;28;20199;-85
2022/12/20 14:15:00;;;;;;;8.87;6.17;;;;;;;;;;5025934;28;20301;-84
2022/12/20 14:17:30;;;;;;;9.37;5.57;;;;;;;;;;5003337;28;20220;-84
2022/12/20 14:20:13;;;;;;;9.43;6.60;;;;;;;;;;5003132;28;20199;-84
2022/12/20 14:22:43;;;;;;;11.70;8.77;;;;;;;;;;5024961;28;20228;-86
2022/12/20 14:25:17;;;;;;;2.13;2.03;;;;;;;;;;5006454;28;20231;-85
2022/12/20 14:27:46;;;;;;;4.93;3.27;;;;;;;;;;5027677;28;20493;-84
2022/12/20 14:30:26;;;;;;;3.03;2.67;;;;;;;;;;5028689;28;20469;-83
2022/12/20 14:32:55;;;;;;;4.93;4.53;;;;;;;;;;5014366;28;20217;-83
2022/12/20 14:35:24;;;;;;;10.17;7.83;;;;;;;;;;5025970;28;20219;-84
2022/12/20 14:37:57;;;;;;;5.57;4.40;;;;;;;;;;5028684;28;20207;-82
2022/12/20 14:40:29;;;;;;;6.27;5.67;;;;;;;;;;5006362;28;20199;-85
2022/12/20 14:42:58;;;;;;;9.83;5.93;;;;;;;;;;5029928;28;20257;-84
2022/12/20 14:45:27;;;;;;;14.53;11.03;;;;;;;;;;5007073;28;20207;-85
2022/12/20 14:47:57;;;;;;;10.07;9.10;;;;;;;;;;5025590;28;20202;-84
2022/12/20 14:50:28;;;;;;;12.03;8.77;;;;;;;;;;5006510;28;20191;-84
2022/12/20 14:52:58;;;;;;;6.37;5.73;;;;;;;;;;5030742;28;20271;-83
2022/12/20 14:55:31;;;;;;;8.60;5.37;;;;;;;;;;5015844;28;20222;-84
2022/12/20 14:58:00;;;;;;;6.47;5.77;;;;;;;;;;5015900;28;20214;-84
2022/12/20 15:00:30;;;;;;;6.07;4.67;;;;;;;;;;5014797;28;20206;-85
2022/12/20 15:03:01;;;;;;;6.27;3.33;;;;;;;;;;5029426;28;20240;-85
2022/12/20 15:05:51;;;;;;;11.90;5.47;;;;;;;;;;5016897;28;20377;-84
2022/12/20 15:08:20;;;;;;;6.67;5.70;;;;;;;;;;5010204;28;20202;-85
2022/12/20 15:10:52;;;;;;;5.30;3.87;;;;;;;;;;5018535;28;20205;-83
2022/12/20 15:13:22;;;;;;;3.60;3.30;;;;;;;;;;5044350;28;20199;-82
2022/12/20 15:15:51;;;;;;;11.40;6.57;;;;;;;;;;5022677;28;20271;-83